sensor_id;sensor_type;location;lat;lon;timestamp;P1;durP1;ratioP1;P2;durP2;ratioP2
75526;SDS011;64107;49.248;7.006;2023-04-09T00:00:35;16.30;;;7.45;;
75526;SDS011;64107;49.248;7.006;2023-04-09T00:05:27;11.30;;;7.03;;
75526;SDS011;64107;49.248;7.006;2023-04-09T00:10:20;11.43;;;8.20;;
75526;SDS011;64107;49.248;7.006;2023-04-09T00:12:46;14.10;;;8.18;;
75526;SDS011;64107;49.248;7.006;2023-04-09T00:17:38;14.50;;;7.43;;
75526;SDS011;64107;49.248;7.006;2023-04-09T00:22:31;12.38;;;7.20;;
75526;SDS011;64107;49.248;7.006;2023-04-09T00:27:23;14.45;;;9.02;;
75526;SDS011;64107;49.248;7.006;2023-04-09T00:29:52;14.88;;;9.30;;
75526;SDS011;64107;49.248;7.006;2023-04-09T00:32:19;15.77;;;8.55;;
75526;SDS011;64107;49.248;7.006;2023-04-09T00:37:11;13.95;;;8.13;;
75526;SDS011;64107;49.248;7.006;2023-04-09T00:42:03;16.77;;;8.43;;
75526;SDS011;64107;49.248;7.006;2023-04-09T00:44:29;17.00;;;10.32;;
75526;SDS011;64107;49.248;7.006;2023-04-09T00:49:22;13.23;;;8.63;;
75526;SDS011;64107;49.248;7.006;2023-04-09T00:51:50;17.67;;;9.20;;
75526;SDS011;64107;49.248;7.006;2023-04-09T00:54:16;12.98;;;8.93;;
75526;SDS011;64107;49.248;7.006;2023-04-09T00:56:42;15.38;;;8.02;;
75526;SDS011;64107;49.248;7.006;2023-04-09T00:59:08;15.85;;;8.90;;
75526;SDS011;64107;49.248;7.006;2023-04-09T01:01:35;18.10;;;8.30;;
75526;SDS011;64107;49.248;7.006;2023-04-09T01:06:48;16.75;;;8.20;;
75526;SDS011;64107;49.248;7.006;2023-04-09T01:09:23;16.85;;;9.63;;
75526;SDS011;64107;49.248;7.006;2023-04-09T01:17:25;16.75;;;9.77;;
75526;SDS011;64107;49.248;7.006;2023-04-09T01:20:02;14.50;;;9.15;;
75526;SDS011;64107;49.248;7.006;2023-04-09T01:22:39;18.60;;;10.52;;
75526;SDS011;64107;49.248;7.006;2023-04-09T01:30:36;17.70;;;11.02;;
75526;SDS011;64107;49.248;7.006;2023-04-09T01:33:03;17.42;;;9.70;;
75526;SDS011;64107;49.248;7.006;2023-04-09T01:35:30;18.48;;;9.93;;
75526;SDS011;64107;49.248;7.006;2023-04-09T01:37:56;16.30;;;10.07;;
75526;SDS011;64107;49.248;7.006;2023-04-09T01:40:23;19.58;;;10.40;;
75526;SDS011;64107;49.248;7.006;2023-04-09T01:42:49;16.58;;;9.25;;
75526;SDS011;64107;49.248;7.006;2023-04-09T01:45:15;16.02;;;8.60;;
75526;SDS011;64107;49.248;7.006;2023-04-09T01:47:41;19.92;;;10.55;;
75526;SDS011;64107;49.248;7.006;2023-04-09T01:52:34;17.98;;;9.90;;
75526;SDS011;64107;49.248;7.006;2023-04-09T01:55:00;18.98;;;10.30;;
75526;SDS011;64107;49.248;7.006;2023-04-09T01:57:27;20.20;;;10.23;;
75526;SDS011;64107;49.248;7.006;2023-04-09T01:59:53;16.23;;;9.35;;
75526;SDS011;64107;49.248;7.006;2023-04-09T02:02:22;20.60;;;11.02;;
75526;SDS011;64107;49.248;7.006;2023-04-09T02:04:58;21.05;;;11.27;;
75526;SDS011;64107;49.248;7.006;2023-04-09T02:07:42;19.15;;;10.50;;
75526;SDS011;64107;49.248;7.006;2023-04-09T02:10:10;18.35;;;10.10;;
75526;SDS011;64107;49.248;7.006;2023-04-09T02:12:39;20.30;;;11.15;;
75526;SDS011;64107;49.248;7.006;2023-04-09T02:15:09;21.48;;;10.65;;
75526;SDS011;64107;49.248;7.006;2023-04-09T02:17:36;16.17;;;9.35;;
75526;SDS011;64107;49.248;7.006;2023-04-09T02:20:02;31.55;;;16.35;;
75526;SDS011;64107;49.248;7.006;2023-04-09T02:22:28;25.10;;;12.05;;
75526;SDS011;64107;49.248;7.006;2023-04-09T02:24:54;19.77;;;12.02;;
75526;SDS011;64107;49.248;7.006;2023-04-09T02:27:20;20.45;;;11.95;;
75526;SDS011;64107;49.248;7.006;2023-04-09T02:29:46;22.13;;;11.25;;
75526;SDS011;64107;49.248;7.006;2023-04-09T02:32:12;17.88;;;9.45;;
75526;SDS011;64107;49.248;7.006;2023-04-09T02:34:38;19.45;;;9.77;;
75526;SDS011;64107;49.248;7.006;2023-04-09T02:37:04;22.67;;;10.80;;
75526;SDS011;64107;49.248;7.006;2023-04-09T02:39:31;20.02;;;10.60;;
75526;SDS011;64107;49.248;7.006;2023-04-09T02:41:57;20.42;;;12.32;;
75526;SDS011;64107;49.248;7.006;2023-04-09T02:44:23;20.33;;;11.38;;
75526;SDS011;64107;49.248;7.006;2023-04-09T02:46:49;18.63;;;10.25;;
75526;SDS011;64107;49.248;7.006;2023-04-09T02:49:18;22.27;;;11.10;;
75526;SDS011;64107;49.248;7.006;2023-04-09T02:51:44;24.35;;;11.88;;
75526;SDS011;64107;49.248;7.006;2023-04-09T02:54:10;18.75;;;11.15;;
75526;SDS011;64107;49.248;7.006;2023-04-09T02:56:36;25.00;;;10.60;;
75526;SDS011;64107;49.248;7.006;2023-04-09T02:59:02;20.98;;;12.43;;
75526;SDS011;64107;49.248;7.006;2023-04-09T03:01:28;20.10;;;10.35;;
75526;SDS011;64107;49.248;7.006;2023-04-09T03:03:54;20.27;;;9.65;;
75526;SDS011;64107;49.248;7.006;2023-04-09T03:06:21;21.35;;;10.93;;
75526;SDS011;64107;49.248;7.006;2023-04-09T03:08:47;21.02;;;11.85;;
75526;SDS011;64107;49.248;7.006;2023-04-09T03:11:13;21.92;;;10.88;;
75526;SDS011;64107;49.248;7.006;2023-04-09T03:13:39;24.13;;;11.25;;
75526;SDS011;64107;49.248;7.006;2023-04-09T03:18:32;19.40;;;11.00;;
75526;SDS011;64107;49.248;7.006;2023-04-09T03:20:58;24.17;;;11.43;;
75526;SDS011;64107;49.248;7.006;2023-04-09T03:23:24;24.63;;;12.15;;
75526;SDS011;64107;49.248;7.006;2023-04-09T03:28:26;15.90;;;8.77;;
75526;SDS011;64107;49.248;7.006;2023-04-09T03:30:52;17.65;;;10.23;;
75526;SDS011;64107;49.248;7.006;2023-04-09T03:33:18;12.60;;;5.22;;
75526;SDS011;64107;49.248;7.006;2023-04-09T03:35:44;17.10;;;9.73;;
75526;SDS011;64107;49.248;7.006;2023-04-09T03:38:11;16.85;;;9.68;;
75526;SDS011;64107;49.248;7.006;2023-04-09T03:40:37;21.42;;;11.20;;
75526;SDS011;64107;49.248;7.006;2023-04-09T03:43:03;21.35;;;10.35;;
75526;SDS011;64107;49.248;7.006;2023-04-09T03:47:55;20.10;;;10.20;;
75526;SDS011;64107;49.248;7.006;2023-04-09T03:50:21;19.08;;;9.43;;
75526;SDS011;64107;49.248;7.006;2023-04-09T03:52:47;19.77;;;8.50;;
75526;SDS011;64107;49.248;7.006;2023-04-09T03:55:13;19.98;;;9.85;;
75526;SDS011;64107;49.248;7.006;2023-04-09T03:57:39;19.60;;;11.75;;
75526;SDS011;64107;49.248;7.006;2023-04-09T04:00:05;23.48;;;11.80;;
75526;SDS011;64107;49.248;7.006;2023-04-09T04:02:31;19.90;;;10.18;;
75526;SDS011;64107;49.248;7.006;2023-04-09T04:04:58;21.30;;;10.82;;
75526;SDS011;64107;49.248;7.006;2023-04-09T04:07:24;23.08;;;10.98;;
75526;SDS011;64107;49.248;7.006;2023-04-09T04:09:51;19.23;;;10.70;;
75526;SDS011;64107;49.248;7.006;2023-04-09T04:12:17;18.70;;;10.40;;
75526;SDS011;64107;49.248;7.006;2023-04-09T04:14:43;21.38;;;11.63;;
75526;SDS011;64107;49.248;7.006;2023-04-09T04:17:09;21.08;;;10.90;;
75526;SDS011;64107;49.248;7.006;2023-04-09T04:19:35;24.42;;;12.43;;
75526;SDS011;64107;49.248;7.006;2023-04-09T04:22:01;24.20;;;10.85;;
75526;SDS011;64107;49.248;7.006;2023-04-09T04:24:27;24.75;;;11.15;;
75526;SDS011;64107;49.248;7.006;2023-04-09T04:26:53;20.60;;;10.23;;
75526;SDS011;64107;49.248;7.006;2023-04-09T04:31:46;19.45;;;8.68;;
75526;SDS011;64107;49.248;7.006;2023-04-09T04:34:12;20.63;;;9.85;;
75526;SDS011;64107;49.248;7.006;2023-04-09T04:36:38;20.60;;;10.38;;
75526;SDS011;64107;49.248;7.006;2023-04-09T04:41:30;18.90;;;9.30;;
75526;SDS011;64107;49.248;7.006;2023-04-09T04:43:56;19.60;;;9.20;;
75526;SDS011;64107;49.248;7.006;2023-04-09T04:46:22;20.60;;;10.77;;
75526;SDS011;64107;49.248;7.006;2023-04-09T04:48:48;21.33;;;10.98;;
75526;SDS011;64107;49.248;7.006;2023-04-09T04:51:14;22.35;;;11.50;;
75526;SDS011;64107;49.248;7.006;2023-04-09T04:53:40;21.52;;;11.25;;
75526;SDS011;64107;49.248;7.006;2023-04-09T04:56:11;20.33;;;10.10;;
75526;SDS011;64107;49.248;7.006;2023-04-09T04:58:38;20.85;;;10.68;;
75526;SDS011;64107;49.248;7.006;2023-04-09T05:01:04;23.00;;;10.82;;
75526;SDS011;64107;49.248;7.006;2023-04-09T05:03:30;23.27;;;11.98;;
75526;SDS011;64107;49.248;7.006;2023-04-09T05:05:56;21.27;;;11.13;;
75526;SDS011;64107;49.248;7.006;2023-04-09T05:08:22;22.95;;;9.38;;
75526;SDS011;64107;49.248;7.006;2023-04-09T05:10:48;26.75;;;12.77;;
75526;SDS011;64107;49.248;7.006;2023-04-09T05:13:15;23.10;;;10.73;;
75526;SDS011;64107;49.248;7.006;2023-04-09T05:15:41;21.13;;;10.45;;
75526;SDS011;64107;49.248;7.006;2023-04-09T05:18:07;23.35;;;11.32;;
75526;SDS011;64107;49.248;7.006;2023-04-09T05:20:33;22.45;;;11.68;;
75526;SDS011;64107;49.248;7.006;2023-04-09T05:23:00;21.95;;;10.82;;
75526;SDS011;64107;49.248;7.006;2023-04-09T05:25:26;23.63;;;11.18;;
75526;SDS011;64107;49.248;7.006;2023-04-09T05:27:52;22.17;;;11.68;;
75526;SDS011;64107;49.248;7.006;2023-04-09T05:30:18;22.02;;;10.85;;
75526;SDS011;64107;49.248;7.006;2023-04-09T05:32:45;20.60;;;11.38;;
75526;SDS011;64107;49.248;7.006;2023-04-09T05:35:11;23.52;;;11.07;;
75526;SDS011;64107;49.248;7.006;2023-04-09T05:37:37;21.98;;;10.90;;
75526;SDS011;64107;49.248;7.006;2023-04-09T05:40:03;20.80;;;10.65;;
75526;SDS011;64107;49.248;7.006;2023-04-09T05:42:30;19.08;;;10.27;;
75526;SDS011;64107;49.248;7.006;2023-04-09T05:44:56;21.17;;;9.90;;
75526;SDS011;64107;49.248;7.006;2023-04-09T05:47:22;19.65;;;10.98;;
75526;SDS011;64107;49.248;7.006;2023-04-09T05:49:48;17.98;;;9.30;;
75526;SDS011;64107;49.248;7.006;2023-04-09T05:52:14;15.00;;;8.93;;
75526;SDS011;64107;49.248;7.006;2023-04-09T05:54:41;17.95;;;9.93;;
75526;SDS011;64107;49.248;7.006;2023-04-09T05:57:07;19.52;;;8.45;;
75526;SDS011;64107;49.248;7.006;2023-04-09T05:59:33;20.75;;;9.90;;
75526;SDS011;64107;49.248;7.006;2023-04-09T06:01:59;18.35;;;9.77;;
75526;SDS011;64107;49.248;7.006;2023-04-09T06:04:25;20.60;;;10.60;;
75526;SDS011;64107;49.248;7.006;2023-04-09T06:06:51;20.25;;;11.30;;
75526;SDS011;64107;49.248;7.006;2023-04-09T06:09:17;16.27;;;8.25;;
75526;SDS011;64107;49.248;7.006;2023-04-09T06:11:43;16.50;;;9.10;;
75526;SDS011;64107;49.248;7.006;2023-04-09T06:14:09;15.38;;;9.05;;
75526;SDS011;64107;49.248;7.006;2023-04-09T06:16:40;17.95;;;9.48;;
75526;SDS011;64107;49.248;7.006;2023-04-09T06:19:06;13.18;;;8.05;;
75526;SDS011;64107;49.248;7.006;2023-04-09T06:21:32;14.48;;;8.02;;
75526;SDS011;64107;49.248;7.006;2023-04-09T06:26:24;14.95;;;7.22;;
75526;SDS011;64107;49.248;7.006;2023-04-09T06:28:50;11.13;;;6.85;;
75526;SDS011;64107;49.248;7.006;2023-04-09T06:31:17;11.18;;;6.60;;
75526;SDS011;64107;49.248;7.006;2023-04-09T06:36:09;11.40;;;6.25;;
75526;SDS011;64107;49.248;7.006;2023-04-09T06:38:35;11.70;;;6.30;;
75526;SDS011;64107;49.248;7.006;2023-04-09T06:43:27;11.07;;;5.72;;
75526;SDS011;64107;49.248;7.006;2023-04-09T06:48:19;10.77;;;6.07;;
75526;SDS011;64107;49.248;7.006;2023-04-09T06:53:11;9.02;;;4.85;;
75526;SDS011;64107;49.248;7.006;2023-04-09T06:55:38;10.90;;;5.70;;
75526;SDS011;64107;49.248;7.006;2023-04-09T06:58:05;11.27;;;5.70;;
75526;SDS011;64107;49.248;7.006;2023-04-09T07:02:57;7.93;;;5.38;;
75526;SDS011;64107;49.248;7.006;2023-04-09T07:05:23;10.27;;;6.13;;
75526;SDS011;64107;49.248;7.006;2023-04-09T07:07:49;9.52;;;6.05;;
75526;SDS011;64107;49.248;7.006;2023-04-09T07:10:15;9.45;;;5.05;;
75526;SDS011;64107;49.248;7.006;2023-04-09T07:12:41;9.35;;;5.13;;
75526;SDS011;64107;49.248;7.006;2023-04-09T07:15:07;10.98;;;5.43;;
75526;SDS011;64107;49.248;7.006;2023-04-09T07:17:33;9.27;;;5.22;;
75526;SDS011;64107;49.248;7.006;2023-04-09T07:20:00;9.57;;;4.93;;
75526;SDS011;64107;49.248;7.006;2023-04-09T07:22:27;10.20;;;6.43;;
75526;SDS011;64107;49.248;7.006;2023-04-09T07:24:53;9.85;;;5.15;;
75526;SDS011;64107;49.248;7.006;2023-04-09T07:27:23;11.15;;;5.65;;
75526;SDS011;64107;49.248;7.006;2023-04-09T07:29:50;8.90;;;5.38;;
75526;SDS011;64107;49.248;7.006;2023-04-09T07:32:18;9.57;;;6.30;;
75526;SDS011;64107;49.248;7.006;2023-04-09T07:34:44;10.30;;;6.20;;
75526;SDS011;64107;49.248;7.006;2023-04-09T07:37:10;10.70;;;4.93;;
75526;SDS011;64107;49.248;7.006;2023-04-09T07:39:36;12.32;;;6.63;;
75526;SDS011;64107;49.248;7.006;2023-04-09T07:42:03;11.93;;;6.80;;
75526;SDS011;64107;49.248;7.006;2023-04-09T07:44:35;11.32;;;5.25;;
75526;SDS011;64107;49.248;7.006;2023-04-09T07:47:03;10.38;;;5.10;;
75526;SDS011;64107;49.248;7.006;2023-04-09T07:49:29;10.60;;;6.25;;
75526;SDS011;64107;49.248;7.006;2023-04-09T07:51:56;10.82;;;6.95;;
75526;SDS011;64107;49.248;7.006;2023-04-09T07:54:23;9.52;;;6.07;;
75526;SDS011;64107;49.248;7.006;2023-04-09T07:56:49;10.55;;;6.05;;
75526;SDS011;64107;49.248;7.006;2023-04-09T07:59:15;10.60;;;6.90;;
75526;SDS011;64107;49.248;7.006;2023-04-09T08:01:41;11.90;;;5.30;;
75526;SDS011;64107;49.248;7.006;2023-04-09T08:04:07;9.38;;;4.90;;
75526;SDS011;64107;49.248;7.006;2023-04-09T08:06:34;10.48;;;6.10;;
75526;SDS011;64107;49.248;7.006;2023-04-09T08:09:00;10.02;;;5.20;;
75526;SDS011;64107;49.248;7.006;2023-04-09T08:11:26;8.88;;;5.03;;
75526;SDS011;64107;49.248;7.006;2023-04-09T08:13:53;9.77;;;5.97;;
75526;SDS011;64107;49.248;7.006;2023-04-09T08:16:19;11.05;;;5.72;;
75526;SDS011;64107;49.248;7.006;2023-04-09T08:18:47;9.85;;;6.00;;
75526;SDS011;64107;49.248;7.006;2023-04-09T08:21:13;10.35;;;5.28;;
75526;SDS011;64107;49.248;7.006;2023-04-09T08:23:40;9.82;;;5.03;;
75526;SDS011;64107;49.248;7.006;2023-04-09T08:26:06;6.35;;;3.72;;
75526;SDS011;64107;49.248;7.006;2023-04-09T08:28:32;8.20;;;4.32;;
75526;SDS011;64107;49.248;7.006;2023-04-09T08:30:58;6.65;;;3.50;;
75526;SDS011;64107;49.248;7.006;2023-04-09T08:33:24;10.70;;;4.40;;
75526;SDS011;64107;49.248;7.006;2023-04-09T08:35:50;10.20;;;5.25;;
75526;SDS011;64107;49.248;7.006;2023-04-09T08:38:17;7.68;;;4.30;;
75526;SDS011;64107;49.248;7.006;2023-04-09T08:40:43;8.05;;;4.40;;
75526;SDS011;64107;49.248;7.006;2023-04-09T08:43:09;8.07;;;4.97;;
75526;SDS011;64107;49.248;7.006;2023-04-09T08:45:40;9.48;;;4.32;;
75526;SDS011;64107;49.248;7.006;2023-04-09T08:48:07;7.15;;;3.85;;
75526;SDS011;64107;49.248;7.006;2023-04-09T08:50:34;8.02;;;4.43;;
75526;SDS011;64107;49.248;7.006;2023-04-09T08:53:02;6.35;;;3.95;;
75526;SDS011;64107;49.248;7.006;2023-04-09T08:55:31;6.65;;;4.05;;
75526;SDS011;64107;49.248;7.006;2023-04-09T08:58:04;8.68;;;4.68;;
75526;SDS011;64107;49.248;7.006;2023-04-09T09:00:34;6.20;;;3.63;;
75526;SDS011;64107;49.248;7.006;2023-04-09T09:03:04;8.13;;;6.38;;
75526;SDS011;64107;49.248;7.006;2023-04-09T09:05:36;6.70;;;3.63;;
75526;SDS011;64107;49.248;7.006;2023-04-09T09:08:02;5.20;;;2.60;;
75526;SDS011;64107;49.248;7.006;2023-04-09T09:10:38;6.05;;;3.17;;
75526;SDS011;64107;49.248;7.006;2023-04-09T09:13:18;5.82;;;2.95;;
75526;SDS011;64107;49.248;7.006;2023-04-09T09:15:45;3.45;;;2.08;;
75526;SDS011;64107;49.248;7.006;2023-04-09T09:18:13;4.15;;;2.40;;
75526;SDS011;64107;49.248;7.006;2023-04-09T09:20:40;5.60;;;3.28;;
75526;SDS011;64107;49.248;7.006;2023-04-09T09:23:06;6.43;;;2.78;;
75526;SDS011;64107;49.248;7.006;2023-04-09T09:25:36;7.03;;;4.25;;
75526;SDS011;64107;49.248;7.006;2023-04-09T09:28:09;7.38;;;4.40;;
75526;SDS011;64107;49.248;7.006;2023-04-09T09:30:36;4.50;;;3.35;;
75526;SDS011;64107;49.248;7.006;2023-04-09T09:33:10;4.72;;;3.33;;
75526;SDS011;64107;49.248;7.006;2023-04-09T09:35:46;4.53;;;3.10;;
75526;SDS011;64107;49.248;7.006;2023-04-09T09:38:17;5.43;;;3.67;;
75526;SDS011;64107;49.248;7.006;2023-04-09T09:40:44;5.60;;;3.90;;
75526;SDS011;64107;49.248;7.006;2023-04-09T09:43:11;6.25;;;3.60;;
75526;SDS011;64107;49.248;7.006;2023-04-09T09:45:37;4.25;;;2.40;;
75526;SDS011;64107;49.248;7.006;2023-04-09T09:48:05;4.97;;;2.90;;
75526;SDS011;64107;49.248;7.006;2023-04-09T09:50:31;3.50;;;2.33;;
75526;SDS011;64107;49.248;7.006;2023-04-09T09:53:04;5.38;;;2.63;;
75526;SDS011;64107;49.248;7.006;2023-04-09T09:55:32;4.95;;;2.80;;
75526;SDS011;64107;49.248;7.006;2023-04-09T09:58:09;6.20;;;3.85;;
75526;SDS011;64107;49.248;7.006;2023-04-09T10:00:52;5.90;;;3.30;;
75526;SDS011;64107;49.248;7.006;2023-04-09T10:03:24;4.85;;;3.88;;
75526;SDS011;64107;49.248;7.006;2023-04-09T10:05:52;5.45;;;3.70;;
75526;SDS011;64107;49.248;7.006;2023-04-09T10:08:18;5.22;;;3.05;;
75526;SDS011;64107;49.248;7.006;2023-04-09T10:10:45;4.35;;;3.20;;
75526;SDS011;64107;49.248;7.006;2023-04-09T10:13:17;4.72;;;3.28;;
75526;SDS011;64107;49.248;7.006;2023-04-09T10:15:49;3.70;;;2.20;;
75526;SDS011;64107;49.248;7.006;2023-04-09T10:18:16;5.63;;;2.08;;
75526;SDS011;64107;49.248;7.006;2023-04-09T10:26:07;2.90;;;1.92;;
75526;SDS011;64107;49.248;7.006;2023-04-09T10:28:33;3.97;;;2.60;;
75526;SDS011;64107;49.248;7.006;2023-04-09T10:30:59;5.40;;;2.28;;
75526;SDS011;64107;49.248;7.006;2023-04-09T10:33:26;2.92;;;2.17;;
75526;SDS011;64107;49.248;7.006;2023-04-09T10:35:53;3.10;;;1.90;;
75526;SDS011;64107;49.248;7.006;2023-04-09T10:38:32;2.70;;;2.00;;
75526;SDS011;64107;49.248;7.006;2023-04-09T10:41:44;4.00;;;2.45;;
75526;SDS011;64107;49.248;7.006;2023-04-09T10:43:52;4.32;;;2.75;;
75526;SDS011;64107;49.248;7.006;2023-04-09T10:46:34;3.65;;;2.83;;
75526;SDS011;64107;49.248;7.006;2023-04-09T10:49:17;3.35;;;2.42;;
75526;SDS011;64107;49.248;7.006;2023-04-09T10:59:38;5.75;;;2.78;;
75526;SDS011;64107;49.248;7.006;2023-04-09T11:07:54;4.82;;;2.08;;
75526;SDS011;64107;49.248;7.006;2023-04-09T11:10:23;2.92;;;2.15;;
75526;SDS011;64107;49.248;7.006;2023-04-09T11:12:49;2.30;;;1.50;;
75526;SDS011;64107;49.248;7.006;2023-04-09T11:15:15;2.67;;;1.98;;
75526;SDS011;64107;49.248;7.006;2023-04-09T11:17:45;2.72;;;1.95;;
75526;SDS011;64107;49.248;7.006;2023-04-09T11:20:12;3.53;;;1.90;;
75526;SDS011;64107;49.248;7.006;2023-04-09T11:22:40;3.13;;;2.45;;
75526;SDS011;64107;49.248;7.006;2023-04-09T11:25:06;1.95;;;1.80;;
75526;SDS011;64107;49.248;7.006;2023-04-09T11:27:42;2.42;;;2.00;;
75526;SDS011;64107;49.248;7.006;2023-04-09T11:30:09;3.15;;;1.67;;
75526;SDS011;64107;49.248;7.006;2023-04-09T11:32:35;3.72;;;1.98;;
75526;SDS011;64107;49.248;7.006;2023-04-09T11:35:01;3.17;;;2.70;;
75526;SDS011;64107;49.248;7.006;2023-04-09T11:37:27;2.83;;;2.30;;
75526;SDS011;64107;49.248;7.006;2023-04-09T11:39:53;3.33;;;1.75;;
75526;SDS011;64107;49.248;7.006;2023-04-09T11:42:21;2.92;;;2.00;;
75526;SDS011;64107;49.248;7.006;2023-04-09T11:44:49;3.28;;;1.98;;
75526;SDS011;64107;49.248;7.006;2023-04-09T11:47:16;2.75;;;1.88;;
75526;SDS011;64107;49.248;7.006;2023-04-09T11:49:43;3.38;;;2.20;;
75526;SDS011;64107;49.248;7.006;2023-04-09T11:52:11;2.58;;;1.92;;
75526;SDS011;64107;49.248;7.006;2023-04-09T11:54:37;3.28;;;1.92;;
75526;SDS011;64107;49.248;7.006;2023-04-09T11:57:03;3.45;;;2.30;;
75526;SDS011;64107;49.248;7.006;2023-04-09T11:59:30;2.90;;;2.50;;
75526;SDS011;64107;49.248;7.006;2023-04-09T12:01:57;2.88;;;2.63;;
75526;SDS011;64107;49.248;7.006;2023-04-09T12:04:23;2.70;;;2.50;;
75526;SDS011;64107;49.248;7.006;2023-04-09T12:06:49;2.45;;;2.10;;
75526;SDS011;64107;49.248;7.006;2023-04-09T12:09:20;2.60;;;2.40;;
75526;SDS011;64107;49.248;7.006;2023-04-09T12:11:46;2.65;;;2.08;;
75526;SDS011;64107;49.248;7.006;2023-04-09T12:14:13;3.20;;;2.80;;
75526;SDS011;64107;49.248;7.006;2023-04-09T12:16:42;3.65;;;2.65;;
75526;SDS011;64107;49.248;7.006;2023-04-09T12:19:10;3.30;;;2.55;;
75526;SDS011;64107;49.248;7.006;2023-04-09T12:21:46;2.40;;;1.80;;
75526;SDS011;64107;49.248;7.006;2023-04-09T12:24:14;2.95;;;2.25;;
75526;SDS011;64107;49.248;7.006;2023-04-09T12:26:41;3.08;;;2.10;;
75526;SDS011;64107;49.248;7.006;2023-04-09T12:29:08;3.25;;;1.90;;
75526;SDS011;64107;49.248;7.006;2023-04-09T12:31:34;2.30;;;1.58;;
75526;SDS011;64107;49.248;7.006;2023-04-09T12:34:00;2.17;;;1.45;;
75526;SDS011;64107;49.248;7.006;2023-04-09T12:36:27;2.40;;;1.92;;
75526;SDS011;64107;49.248;7.006;2023-04-09T12:38:53;2.35;;;1.85;;
75526;SDS011;64107;49.248;7.006;2023-04-09T12:41:19;3.17;;;2.40;;
75526;SDS011;64107;49.248;7.006;2023-04-09T12:43:45;2.40;;;1.90;;
75526;SDS011;64107;49.248;7.006;2023-04-09T12:46:13;2.60;;;1.92;;
75526;SDS011;64107;49.248;7.006;2023-04-09T12:48:39;3.17;;;2.05;;
75526;SDS011;64107;49.248;7.006;2023-04-09T12:51:05;3.10;;;2.53;;
75526;SDS011;64107;49.248;7.006;2023-04-09T12:53:31;3.83;;;2.83;;
75526;SDS011;64107;49.248;7.006;2023-04-09T12:55:57;2.83;;;2.53;;
75526;SDS011;64107;49.248;7.006;2023-04-09T12:58:23;3.10;;;2.50;;
75526;SDS011;64107;49.248;7.006;2023-04-09T13:00:49;3.50;;;2.55;;
75526;SDS011;64107;49.248;7.006;2023-04-09T13:03:17;2.63;;;2.05;;
75526;SDS011;64107;49.248;7.006;2023-04-09T13:05:43;2.35;;;1.88;;
75526;SDS011;64107;49.248;7.006;2023-04-09T13:08:09;2.78;;;2.15;;
75526;SDS011;64107;49.248;7.006;2023-04-09T13:10:35;2.90;;;2.45;;
75526;SDS011;64107;49.248;7.006;2023-04-09T13:13:03;2.28;;;1.73;;
75526;SDS011;64107;49.248;7.006;2023-04-09T13:15:30;2.28;;;1.77;;
75526;SDS011;64107;49.248;7.006;2023-04-09T13:17:56;2.83;;;2.50;;
75526;SDS011;64107;49.248;7.006;2023-04-09T13:20:22;3.28;;;2.55;;
75526;SDS011;64107;49.248;7.006;2023-04-09T13:22:48;2.75;;;1.83;;
75526;SDS011;64107;49.248;7.006;2023-04-09T13:25:14;2.97;;;2.42;;
75526;SDS011;64107;49.248;7.006;2023-04-09T13:27:41;2.30;;;2.00;;
75526;SDS011;64107;49.248;7.006;2023-04-09T13:30:07;2.83;;;2.03;;
75526;SDS011;64107;49.248;7.006;2023-04-09T13:32:33;2.85;;;1.90;;
75526;SDS011;64107;49.248;7.006;2023-04-09T13:34:59;2.97;;;2.50;;
75526;SDS011;64107;49.248;7.006;2023-04-09T13:37:25;3.17;;;2.65;;
75526;SDS011;64107;49.248;7.006;2023-04-09T13:39:51;1.98;;;1.50;;
75526;SDS011;64107;49.248;7.006;2023-04-09T13:42:17;3.88;;;2.63;;
75526;SDS011;64107;49.248;7.006;2023-04-09T13:44:43;2.55;;;2.35;;
75526;SDS011;64107;49.248;7.006;2023-04-09T13:47:13;3.25;;;2.03;;
75526;SDS011;64107;49.248;7.006;2023-04-09T13:49:40;3.80;;;3.40;;
75526;SDS011;64107;49.248;7.006;2023-04-09T13:52:07;4.63;;;2.35;;
75526;SDS011;64107;49.248;7.006;2023-04-09T13:54:33;2.92;;;2.63;;
75526;SDS011;64107;49.248;7.006;2023-04-09T13:57:00;3.00;;;2.70;;
75526;SDS011;64107;49.248;7.006;2023-04-09T13:59:26;3.25;;;2.65;;
75526;SDS011;64107;49.248;7.006;2023-04-09T14:01:52;3.55;;;3.25;;
75526;SDS011;64107;49.248;7.006;2023-04-09T14:04:18;4.32;;;3.70;;
75526;SDS011;64107;49.248;7.006;2023-04-09T14:06:45;4.00;;;3.60;;
75526;SDS011;64107;49.248;7.006;2023-04-09T14:09:11;3.65;;;3.20;;
75526;SDS011;64107;49.248;7.006;2023-04-09T14:11:37;2.97;;;2.00;;
75526;SDS011;64107;49.248;7.006;2023-04-09T14:14:03;3.30;;;2.63;;
75526;SDS011;64107;49.248;7.006;2023-04-09T14:16:29;5.43;;;2.90;;
75526;SDS011;64107;49.248;7.006;2023-04-09T14:18:56;4.30;;;3.90;;
75526;SDS011;64107;49.248;7.006;2023-04-09T14:21:22;3.85;;;2.67;;
75526;SDS011;64107;49.248;7.006;2023-04-09T14:23:48;3.00;;;2.03;;
75526;SDS011;64107;49.248;7.006;2023-04-09T14:26:14;4.60;;;2.63;;
75526;SDS011;64107;49.248;7.006;2023-04-09T14:28:41;3.60;;;2.90;;
75526;SDS011;64107;49.248;7.006;2023-04-09T14:31:08;4.45;;;3.22;;
75526;SDS011;64107;49.248;7.006;2023-04-09T14:33:34;3.97;;;3.38;;
75526;SDS011;64107;49.248;7.006;2023-04-09T14:36:00;5.05;;;3.67;;
75526;SDS011;64107;49.248;7.006;2023-04-09T14:38:26;4.25;;;3.75;;
75526;SDS011;64107;49.248;7.006;2023-04-09T14:40:52;4.13;;;3.38;;
75526;SDS011;64107;49.248;7.006;2023-04-09T14:43:18;3.50;;;2.90;;
75526;SDS011;64107;49.248;7.006;2023-04-09T14:45:44;3.13;;;2.83;;
75526;SDS011;64107;49.248;7.006;2023-04-09T14:48:10;3.72;;;2.70;;
75526;SDS011;64107;49.248;7.006;2023-04-09T14:50:37;4.47;;;3.80;;
75526;SDS011;64107;49.248;7.006;2023-04-09T14:53:03;4.55;;;3.28;;
75526;SDS011;64107;49.248;7.006;2023-04-09T14:55:29;4.40;;;2.85;;
75526;SDS011;64107;49.248;7.006;2023-04-09T14:57:55;3.58;;;2.72;;
75526;SDS011;64107;49.248;7.006;2023-04-09T15:00:22;5.10;;;3.50;;
75526;SDS011;64107;49.248;7.006;2023-04-09T15:02:48;4.00;;;3.15;;
75526;SDS011;64107;49.248;7.006;2023-04-09T15:05:14;3.80;;;3.28;;
75526;SDS011;64107;49.248;7.006;2023-04-09T15:07:41;4.32;;;3.92;;
75526;SDS011;64107;49.248;7.006;2023-04-09T15:10:07;4.32;;;3.22;;
75526;SDS011;64107;49.248;7.006;2023-04-09T15:12:34;5.30;;;3.70;;
75526;SDS011;64107;49.248;7.006;2023-04-09T15:15:00;4.18;;;3.35;;
75526;SDS011;64107;49.248;7.006;2023-04-09T15:17:28;4.85;;;3.08;;
75526;SDS011;64107;49.248;7.006;2023-04-09T15:19:55;3.92;;;3.40;;
75526;SDS011;64107;49.248;7.006;2023-04-09T15:22:21;5.03;;;3.70;;
75526;SDS011;64107;49.248;7.006;2023-04-09T15:24:47;3.50;;;2.35;;
75526;SDS011;64107;49.248;7.006;2023-04-09T15:27:14;3.80;;;2.70;;
75526;SDS011;64107;49.248;7.006;2023-04-09T15:29:40;3.35;;;3.05;;
75526;SDS011;64107;49.248;7.006;2023-04-09T15:32:07;4.57;;;3.20;;
75526;SDS011;64107;49.248;7.006;2023-04-09T15:34:33;3.40;;;3.03;;
75526;SDS011;64107;49.248;7.006;2023-04-09T15:36:59;4.97;;;3.08;;
75526;SDS011;64107;49.248;7.006;2023-04-09T15:39:25;3.30;;;2.35;;
75526;SDS011;64107;49.248;7.006;2023-04-09T15:41:52;4.15;;;3.70;;
75526;SDS011;64107;49.248;7.006;2023-04-09T15:44:21;3.92;;;3.53;;
75526;SDS011;64107;49.248;7.006;2023-04-09T15:46:47;3.63;;;3.17;;
75526;SDS011;64107;49.248;7.006;2023-04-09T15:49:13;4.85;;;4.13;;
75526;SDS011;64107;49.248;7.006;2023-04-09T15:51:40;3.63;;;3.08;;
75526;SDS011;64107;49.248;7.006;2023-04-09T15:54:06;3.78;;;3.28;;
75526;SDS011;64107;49.248;7.006;2023-04-09T15:56:32;4.00;;;2.88;;
75526;SDS011;64107;49.248;7.006;2023-04-09T15:59:00;3.90;;;3.50;;